createdAt,value
2018-10-11T00:00:29.853Z,32.00
2018-10-11T00:01:03.805Z,32.30
2018-10-11T00:01:37.660Z,29.93
2018-10-11T00:02:11.501Z,31.80
2018-10-11T00:02:45.323Z,31.60
2018-10-11T00:03:19.282Z,32.63
2018-10-11T00:03:53.136Z,31.40
2018-10-11T00:04:27.166Z,33.50
2018-10-11T00:05:00.997Z,31.80
2018-10-11T00:05:35.525Z,32.90
2018-10-11T00:06:10.055Z,32.00
2018-10-11T00:06:43.963Z,33.67
2018-10-11T00:07:18.113Z,31.97
2018-10-11T00:07:52.299Z,31.87
2018-10-11T00:08:26.154Z,32.20
2018-10-11T00:09:00.391Z,32.27
2018-10-11T00:09:34.229Z,33.23
2018-10-11T00:10:08.129Z,32.37
2018-10-11T00:10:42.299Z,32.20
2018-10-11T00:11:16.463Z,31.80
2018-10-11T00:11:50.643Z,30.97
2018-10-11T00:12:24.915Z,31.80
2018-10-11T00:12:58.748Z,32.60
2018-10-11T00:13:32.590Z,32.23
2018-10-11T00:14:06.567Z,33.07
2018-10-11T00:14:40.388Z,31.63
2018-10-11T00:15:14.889Z,32.47
2018-10-11T00:15:49.069Z,34.07
2018-10-11T00:16:23.245Z,31.73
2018-10-11T00:16:57.131Z,32.53
2018-10-11T00:17:30.995Z,31.53
2018-10-11T00:18:04.811Z,31.90
2018-10-11T00:18:38.923Z,31.37
2018-10-11T00:19:12.760Z,30.60
2018-10-11T00:19:46.646Z,32.77
2018-10-11T00:20:21.005Z,30.90
2018-10-11T00:20:55.391Z,33.57
2018-10-11T00:21:29.305Z,32.33
2018-10-11T00:22:03.537Z,32.17
2018-10-11T00:22:37.357Z,31.13
2018-10-11T00:23:11.198Z,34.23
2018-10-11T00:23:45.027Z,33.47
2018-10-11T00:24:18.877Z,32.50
2018-10-11T00:24:52.711Z,33.10
2018-10-11T00:25:26.537Z,31.33
2018-10-11T00:26:00.377Z,32.67
2018-10-11T00:26:34.219Z,30.97
2018-10-11T00:27:08.475Z,33.43
2018-10-11T00:27:42.321Z,31.00
2018-10-11T00:28:16.473Z,33.10
2018-10-11T00:28:50.333Z,33.03
2018-10-11T00:29:24.301Z,33.80
2018-10-11T00:29:58.153Z,31.50
2018-10-11T00:30:32.024Z,33.87
2018-10-11T00:31:06.700Z,30.73
2018-10-11T00:31:40.532Z,32.10
2018-10-11T00:32:15.181Z,31.30
2018-10-11T00:32:49.661Z,31.73
2018-10-11T00:33:23.486Z,33.07
2018-10-11T00:33:57.384Z,31.87
2018-10-11T00:34:31.579Z,32.47
2018-10-11T00:35:05.431Z,33.53
2018-10-11T00:35:39.288Z,31.90
2018-10-11T00:36:13.458Z,33.47
2018-10-11T00:36:47.651Z,32.80
2018-10-11T00:37:21.563Z,31.93
2018-10-11T00:37:55.404Z,33.40
2018-10-11T00:38:29.233Z,34.53
2018-10-11T00:39:03.932Z,32.97
2018-10-11T00:39:37.996Z,33.53
2018-10-11T00:40:11.833Z,32.87
2018-10-11T00:40:46.570Z,32.60
2018-10-11T00:41:20.384Z,33.40
2018-10-11T00:41:54.225Z,33.07
2018-10-11T00:42:28.093Z,31.70
2018-10-11T00:43:01.935Z,32.40
2018-10-11T00:43:35.886Z,32.30
2018-10-11T00:44:10.583Z,33.43
2018-10-11T00:44:44.451Z,32.03
2018-10-11T00:45:18.637Z,33.47
2018-10-11T00:45:52.505Z,34.50
2018-10-11T00:46:26.369Z,32.67
2018-10-11T00:47:00.237Z,32.70
2018-10-11T00:47:34.123Z,33.53
2018-10-11T00:48:08.021Z,34.93
2018-10-11T00:48:41.845Z,32.20
2018-10-11T00:49:15.737Z,34.50
2018-10-11T00:49:49.729Z,33.57
2018-10-11T00:50:23.755Z,32.67
2018-10-11T00:50:58.481Z,34.93
2018-10-11T00:51:32.647Z,32.83
2018-10-11T00:52:06.613Z,33.00
2018-10-11T00:52:47.277Z,33.33
2018-10-11T00:53:21.123Z,34.60
2018-10-11T00:53:54.962Z,34.80
2018-10-11T00:54:29.149Z,32.30
2018-10-11T00:55:02.961Z,34.07
2018-10-11T00:55:36.773Z,34.00
2018-10-11T00:56:10.637Z,34.80
2018-10-11T00:56:44.451Z,32.87
2018-10-11T00:57:18.315Z,34.73
2018-10-11T00:57:52.137Z,34.00
2018-10-11T00:58:25.976Z,34.53
2018-10-11T00:59:00.154Z,34.50
2018-10-11T00:59:33.995Z,34.60
2018-10-11T01:00:07.845Z,34.17
2018-10-11T01:00:42.015Z,33.83
2018-10-11T01:01:15.885Z,33.80
2018-10-11T01:01:49.745Z,32.93
2018-10-11T01:02:23.922Z,35.80
2018-10-11T01:02:57.787Z,35.80
2018-10-11T01:03:31.609Z,33.63
2018-10-11T01:04:05.503Z,34.70
2018-10-11T01:04:39.341Z,33.10
2018-10-11T01:05:13.173Z,36.93
2018-10-11T01:05:46.983Z,33.07
2018-10-11T01:06:20.831Z,34.20
2018-10-11T01:06:54.660Z,32.40
2018-10-11T01:07:28.545Z,34.77
2018-10-11T01:08:02.767Z,34.10
2018-10-11T01:08:36.927Z,35.40
2018-10-11T01:09:12.232Z,34.53
2018-10-11T01:09:46.269Z,34.67
2018-10-11T01:10:20.125Z,35.00
2018-10-11T01:10:53.952Z,33.00
2018-10-11T01:11:28.121Z,33.57
2018-10-11T01:12:02.289Z,34.63
2018-10-11T01:12:36.483Z,34.03
2018-10-11T01:13:10.350Z,31.53
2018-10-11T01:13:44.237Z,36.97
2018-10-11T01:14:18.088Z,33.80
2018-10-11T01:14:51.923Z,35.07
2018-10-11T01:15:25.775Z,35.80
2018-10-11T01:15:59.919Z,33.70
2018-10-11T01:16:33.755Z,34.20
2018-10-11T01:17:08.041Z,35.30
2018-10-11T01:17:41.965Z,34.90
2018-10-11T01:18:15.877Z,33.23
2018-10-11T01:18:49.705Z,36.10
2018-10-11T01:19:23.534Z,37.60
2018-10-11T01:19:57.577Z,34.57
2018-10-11T01:20:31.493Z,36.00
2018-10-11T01:21:05.309Z,35.87
2018-10-11T01:21:39.732Z,34.37
2018-10-11T01:22:13.569Z,35.77
2018-10-11T01:22:47.773Z,36.00
2018-10-11T01:23:21.639Z,34.63
2018-10-11T01:23:55.589Z,34.60
2018-10-11T01:24:29.564Z,36.57
2018-10-11T01:25:04.071Z,35.47
2018-10-11T01:25:37.922Z,34.40
2018-10-11T01:26:12.107Z,36.13
2018-10-11T01:26:45.976Z,34.20
2018-10-11T01:27:19.832Z,34.63
2018-10-11T01:27:54.032Z,36.47
2018-10-11T01:28:28.211Z,35.43
2018-10-11T01:29:02.043Z,36.07
2018-10-11T01:29:35.941Z,35.20
2018-10-11T01:30:09.977Z,34.80
2018-10-11T01:30:49.358Z,35.53
2018-10-11T01:31:24.546Z,35.37
2018-10-11T01:31:58.365Z,34.83
2018-10-11T01:32:32.563Z,35.40
2018-10-11T01:33:06.442Z,35.50
2018-10-11T01:33:40.285Z,37.40
2018-10-11T01:34:14.463Z,37.33
2018-10-11T01:34:48.281Z,35.50
2018-10-11T01:35:22.454Z,36.00
2018-10-11T01:35:56.297Z,36.37
2018-10-11T01:36:30.142Z,37.10
2018-10-11T01:37:03.986Z,37.53
2018-10-11T01:37:38.164Z,35.80
2018-10-11T01:38:12.957Z,35.80
2018-10-11T01:38:48.560Z,36.17
2018-10-11T01:39:22.572Z,35.30
2018-10-11T01:39:56.408Z,35.77
2018-10-11T01:40:30.247Z,35.90
2018-10-11T01:41:04.418Z,36.37
2018-10-11T01:41:38.277Z,37.60
2018-10-11T01:42:12.466Z,36.53
2018-10-11T01:42:46.302Z,37.00
2018-10-11T01:43:20.560Z,37.93
2018-10-11T01:43:54.740Z,37.47
2018-10-11T01:44:29.102Z,36.67
2018-10-11T01:45:02.964Z,36.30
2018-10-11T01:45:37.522Z,36.33
2018-10-11T01:46:11.388Z,34.73
2018-10-11T01:46:45.558Z,37.97
2018-10-11T01:47:20.092Z,38.43
2018-10-11T01:47:53.946Z,36.80
2018-10-11T01:48:28.396Z,36.80
2018-10-11T01:49:02.263Z,38.03
2018-10-11T01:49:36.442Z,38.53
2018-10-11T01:50:10.936Z,37.47
2018-10-11T01:50:45.080Z,38.07
2018-10-11T01:51:19.251Z,37.50
2018-10-11T01:51:53.089Z,37.47
2018-10-11T01:52:26.946Z,37.40
2018-10-11T01:53:00.816Z,37.77
2018-10-11T01:53:34.688Z,38.40
2018-10-11T01:54:08.533Z,36.57
2018-10-11T01:54:42.397Z,37.30
2018-10-11T01:55:16.564Z,36.97
2018-10-11T01:55:50.776Z,37.30
2018-10-11T01:56:24.606Z,38.03
2018-10-11T01:56:58.430Z,36.43
2018-10-11T01:57:32.626Z,36.27
2018-10-11T01:58:06.480Z,37.67
2018-10-11T01:58:40.337Z,36.37
2018-10-11T01:59:14.850Z,38.50
2018-10-11T01:59:48.680Z,37.60
2018-10-11T02:00:22.542Z,36.90
2018-10-11T02:00:56.400Z,37.83
2018-10-11T02:01:30.305Z,37.73
2018-10-11T02:02:04.509Z,37.40
2018-10-11T02:02:38.357Z,37.00
2018-10-11T02:03:12.236Z,37.70
2018-10-11T02:03:46.538Z,38.97
2018-10-11T02:04:20.346Z,38.77
2018-10-11T02:04:54.190Z,37.13
2018-10-11T02:05:28.859Z,36.43
2018-10-11T02:06:02.700Z,38.33
2018-10-11T02:06:36.873Z,37.97
2018-10-11T02:07:10.751Z,39.77
2018-10-11T02:07:44.946Z,37.53
2018-10-11T02:08:18.782Z,36.10
2018-10-11T02:08:52.702Z,38.03
2018-10-11T02:09:27.294Z,37.10
2018-10-11T02:10:01.407Z,37.77
2018-10-11T02:10:35.268Z,38.63
2018-10-11T02:11:09.424Z,36.73
2018-10-11T02:11:43.458Z,37.77
2018-10-11T02:12:17.326Z,37.93
2018-10-11T02:12:51.246Z,38.27
2018-10-11T02:13:25.736Z,36.43
2018-10-11T02:13:59.955Z,37.70
2018-10-11T02:14:33.830Z,38.07
2018-10-11T02:15:07.670Z,38.57
2018-10-11T02:15:41.528Z,36.63
2018-10-11T02:16:15.354Z,37.40
2018-10-11T02:16:49.864Z,38.77
2018-10-11T02:17:23.856Z,36.03
2018-10-11T02:17:58.371Z,36.60
2018-10-11T02:18:32.324Z,37.07
2018-10-11T02:19:06.882Z,36.70
2018-10-11T02:19:40.709Z,36.93
2018-10-11T02:20:14.565Z,37.70
2018-10-11T02:20:48.411Z,38.63
2018-10-11T02:21:22.254Z,36.30
2018-10-11T02:21:56.122Z,38.13
2018-10-11T02:22:29.975Z,37.37
2018-10-11T02:23:03.828Z,37.10
2018-10-11T02:23:37.679Z,36.50
2018-10-11T02:24:11.742Z,38.60
2018-10-11T02:24:45.620Z,37.53
2018-10-11T02:25:19.448Z,37.53
2018-10-11T02:25:53.331Z,38.77
2018-10-11T02:26:27.486Z,38.00
2018-10-11T02:27:01.339Z,36.50
2018-10-11T02:27:35.200Z,35.67
2018-10-11T02:28:10.004Z,37.70
2018-10-11T02:28:43.842Z,37.17
2018-10-11T02:29:17.738Z,36.73
2018-10-11T02:29:51.586Z,38.93
2018-10-11T02:30:25.499Z,37.80
2018-10-11T02:30:59.350Z,37.23
2018-10-11T02:31:33.574Z,38.33
2018-10-11T02:32:07.943Z,36.53
2018-10-11T02:32:42.876Z,37.37
2018-10-11T02:33:16.769Z,38.00
2018-10-11T02:33:50.630Z,36.00
2018-10-11T02:34:24.542Z,39.40
2018-10-11T02:34:58.561Z,36.20
2018-10-11T02:35:32.799Z,36.20
2018-10-11T02:36:06.967Z,36.10
2018-10-11T02:36:40.822Z,36.50
2018-10-11T02:37:14.656Z,36.77
2018-10-11T02:37:48.822Z,37.80
2018-10-11T02:38:22.996Z,37.30
2018-10-11T02:38:56.841Z,38.10
2018-10-11T02:39:30.720Z,36.90
2018-10-11T02:40:04.558Z,38.97
2018-10-11T02:40:38.423Z,36.93
2018-10-11T02:41:12.256Z,37.60
2018-10-11T02:41:46.082Z,38.30
2018-10-11T02:42:19.944Z,35.40
2018-10-11T02:42:54.103Z,38.00
2018-10-11T02:43:28.288Z,36.67
2018-10-11T02:44:02.122Z,36.80
2018-10-11T02:44:35.976Z,37.53
2018-10-11T02:45:10.123Z,37.13
2018-10-11T02:45:44.293Z,38.57
2018-10-11T02:46:18.126Z,37.60
2018-10-11T02:46:52.310Z,38.53
2018-10-11T02:47:26.180Z,37.90
2018-10-11T02:48:00.348Z,38.10
2018-10-11T02:48:34.669Z,38.50
2018-10-11T02:49:08.578Z,38.80
2018-10-11T02:49:43.034Z,39.03
2018-10-11T02:50:16.937Z,38.30
2018-10-11T02:50:51.134Z,38.13
2018-10-11T02:51:25.008Z,39.10
2018-10-11T02:51:58.998Z,38.57
2018-10-11T02:52:32.896Z,37.40
2018-10-11T02:53:07.072Z,38.90
2018-10-11T02:53:40.940Z,39.60
2018-10-11T02:54:15.517Z,36.90
2018-10-11T02:54:49.394Z,37.20
2018-10-11T02:55:25.539Z,38.33
2018-10-11T02:55:59.399Z,36.43
2018-10-11T02:56:33.216Z,38.63
2018-10-11T02:57:17.180Z,38.00
2018-10-11T02:58:03.058Z,38.00
2018-10-11T02:58:48.340Z,37.20
2018-10-11T02:59:33.356Z,37.00
2018-10-11T03:00:07.241Z,36.67
2018-10-11T03:00:41.080Z,38.00
2018-10-11T03:01:15.428Z,39.43
2018-10-11T03:01:49.280Z,38.77
2018-10-11T03:02:24.403Z,36.07
2018-10-11T03:03:01.170Z,39.93
2018-10-11T03:03:35.017Z,37.90
2018-10-11T03:04:08.842Z,37.60
2018-10-11T03:04:43.127Z,39.90
2018-10-11T03:05:18.478Z,40.73
2018-10-11T03:05:52.432Z,40.03
2018-10-11T03:06:26.415Z,39.00
2018-10-11T03:07:00.291Z,36.23
2018-10-11T03:07:34.473Z,40.10
2018-10-11T03:08:09.850Z,38.53
2018-10-11T03:08:43.692Z,38.10
2018-10-11T03:09:18.003Z,40.30
2018-10-11T03:09:51.888Z,39.80
2018-10-11T03:10:25.790Z,37.70
2018-10-11T03:10:59.686Z,38.47
2018-10-11T03:11:33.718Z,38.90
2018-10-11T03:12:08.296Z,39.50
2018-10-11T03:12:42.154Z,37.47
2018-10-11T03:13:16.343Z,39.50
2018-10-11T03:13:50.188Z,38.17
2018-10-11T03:14:24.052Z,39.60
2018-10-11T03:14:57.919Z,40.63
2018-10-11T03:15:32.068Z,39.17
2018-10-11T03:16:06.096Z,40.40
2018-10-11T03:16:40.288Z,39.33
2018-10-11T03:17:14.344Z,39.70
2018-10-11T03:17:48.505Z,38.70
2018-10-11T03:18:22.356Z,39.67
2018-10-11T03:18:56.940Z,40.23
2018-10-11T03:19:31.105Z,42.00
2018-10-11T03:20:05.519Z,41.83
2018-10-11T03:20:40.252Z,38.50
2018-10-11T03:21:14.089Z,41.50
2018-10-11T03:21:47.903Z,40.70
2018-10-11T03:22:21.734Z,41.17
2018-10-11T03:22:55.561Z,41.37
2018-10-11T03:23:29.391Z,42.20
2018-10-11T03:24:03.580Z,42.03
2018-10-11T03:24:37.735Z,41.80
2018-10-11T03:25:11.587Z,41.30
2018-10-11T03:25:46.428Z,42.50
2018-10-11T03:26:20.245Z,40.40
2018-10-11T03:26:56.687Z,39.50
2018-10-11T03:27:30.868Z,41.47
2018-10-11T03:28:05.021Z,42.47
2018-10-11T03:28:39.197Z,41.00
2018-10-11T03:29:29.170Z,43.30
2018-10-11T03:30:03.022Z,40.70
2018-10-11T03:30:36.880Z,40.83
2018-10-11T03:31:10.713Z,41.50
2018-10-11T03:31:44.885Z,41.67
2018-10-11T03:32:18.737Z,41.70
2018-10-11T03:32:52.561Z,40.60
2018-10-11T03:33:26.416Z,41.07
2018-10-11T03:34:04.239Z,40.83
2018-10-11T03:34:38.111Z,41.53
2018-10-11T03:35:12.400Z,41.20
2018-10-11T03:35:46.286Z,41.67
2018-10-11T03:36:20.441Z,41.63
2018-10-11T03:36:54.950Z,43.27
2018-10-11T03:37:28.833Z,41.57
2018-10-11T03:38:02.712Z,41.47
2018-10-11T03:38:36.553Z,40.57
2018-10-11T03:39:10.763Z,41.40
2018-10-11T03:39:45.901Z,41.97
2018-10-11T03:40:20.797Z,42.93
2018-10-11T03:40:55.015Z,42.57
2018-10-11T03:41:28.890Z,44.57
2018-10-11T03:42:02.731Z,44.10
2018-10-11T03:42:36.715Z,41.13
2018-10-11T03:43:11.046Z,42.67
2018-10-11T03:43:45.434Z,44.87
2018-10-11T03:44:19.389Z,42.40
2018-10-11T03:44:53.569Z,44.37
2018-10-11T03:45:27.609Z,40.93
2018-10-11T03:46:01.475Z,44.43
2018-10-11T03:46:35.367Z,44.00
2018-10-11T03:47:09.399Z,44.30
2018-10-11T03:47:43.225Z,43.40
2018-10-11T03:48:17.082Z,43.10
2018-10-11T03:48:50.938Z,43.33
2018-10-11T03:49:25.189Z,46.23
2018-10-11T03:49:59.587Z,44.20
2018-10-11T03:50:33.435Z,43.80
2018-10-11T03:51:07.987Z,44.40
2018-10-11T03:51:41.842Z,42.60
2018-10-11T03:52:15.687Z,43.00
2018-10-11T03:52:49.527Z,43.20
2018-10-11T03:53:23.406Z,44.03
2018-10-11T03:53:57.705Z,45.00
2018-10-11T03:54:31.557Z,42.73
2018-10-11T03:55:05.427Z,42.37
2018-10-11T03:55:39.681Z,44.93
2018-10-11T03:56:13.795Z,45.40
2018-10-11T03:56:47.685Z,40.83
2018-10-11T03:57:21.541Z,43.10
2018-10-11T03:57:55.495Z,44.97
2018-10-11T03:58:29.867Z,42.83
2018-10-11T03:59:03.949Z,43.07
2018-10-11T03:59:38.062Z,44.50
2018-10-11T04:00:12.248Z,44.40
2018-10-11T04:00:46.133Z,42.00
2018-10-11T04:01:19.955Z,43.80
2018-10-11T04:01:54.297Z,42.63
2018-10-11T04:02:28.151Z,45.97
2018-10-11T04:03:02.641Z,43.77
2018-10-11T04:03:36.835Z,42.77
2018-10-11T04:04:11.035Z,44.63
2018-10-11T04:04:44.909Z,43.43
2018-10-11T04:05:19.114Z,43.77
2018-10-11T04:05:53.347Z,43.83
2018-10-11T04:06:27.588Z,45.07
2018-10-11T04:07:01.793Z,43.57
2018-10-11T04:07:35.774Z,44.30
2018-10-11T04:08:09.812Z,43.27
2018-10-11T04:08:43.701Z,43.73
2018-10-11T04:09:17.728Z,44.90
2018-10-11T04:09:51.599Z,42.57
2018-10-11T04:10:25.837Z,43.43
2018-10-11T04:10:59.702Z,43.97
2018-10-11T04:11:34.037Z,42.63
2018-10-11T04:12:08.312Z,44.60
2018-10-11T04:12:42.321Z,42.60
2018-10-11T04:13:16.167Z,45.73
2018-10-11T04:13:50.009Z,41.77
2018-10-11T04:14:23.826Z,43.63
2018-10-11T04:14:58.151Z,44.93
2018-10-11T04:15:32.349Z,42.50
2018-10-11T04:16:06.381Z,42.57
2018-10-11T04:16:40.652Z,44.07
2018-10-11T04:17:14.532Z,42.90
2018-10-11T04:17:48.720Z,43.57
2018-10-11T04:18:22.572Z,44.60
2018-10-11T04:18:56.838Z,42.90
2018-10-11T04:19:30.852Z,43.40
2018-10-11T04:20:04.761Z,45.13
2018-10-11T04:20:38.858Z,43.57
2018-10-11T04:21:12.733Z,42.73
2018-10-11T04:21:46.784Z,44.20
2018-10-11T04:22:21.289Z,44.53
2018-10-11T04:22:55.140Z,42.60
2018-10-11T04:23:30.170Z,41.43
2018-10-11T04:24:04.437Z,43.43
2018-10-11T04:24:38.269Z,42.87
2018-10-11T04:25:12.146Z,45.23
2018-10-11T04:25:52.962Z,42.40
2018-10-11T04:26:26.947Z,43.00
2018-10-11T04:27:00.810Z,43.17
2018-10-11T04:27:34.966Z,43.20
2018-10-11T04:28:09.157Z,42.40
2018-10-11T04:28:43.323Z,41.00
2018-10-11T04:29:17.196Z,44.60
2018-10-11T04:29:51.603Z,42.60
2018-10-11T04:30:26.640Z,42.27
2018-10-11T04:31:00.516Z,43.37
2018-10-11T04:31:34.418Z,42.00
2018-10-11T04:32:08.791Z,42.60
2018-10-11T04:32:42.961Z,43.00
2018-10-11T04:33:17.046Z,43.43
2018-10-11T04:33:50.990Z,42.20
2018-10-11T04:34:25.722Z,44.18
2018-10-11T04:35:00.056Z,43.47
2018-10-11T04:35:33.945Z,44.20
2018-10-11T04:36:09.506Z,45.13
2018-10-11T04:36:43.774Z,43.40
2018-10-11T04:37:17.607Z,46.83
2018-10-11T04:37:52.166Z,46.07
2018-10-11T04:38:26.458Z,44.40
2018-10-11T04:39:01.781Z,41.83
2018-10-11T04:39:35.616Z,43.90
2018-10-11T04:40:09.463Z,44.20
2018-10-11T04:40:43.799Z,43.83
2018-10-11T04:41:17.635Z,43.83
2018-10-11T04:41:51.501Z,45.13
2018-10-11T04:42:25.648Z,44.60
2018-10-11T04:42:59.647Z,44.50
2018-10-11T04:43:33.625Z,45.67
2018-10-11T04:44:08.186Z,43.37
2018-10-11T04:44:42.289Z,45.48
2018-10-11T04:45:16.402Z,44.03
2018-10-11T04:45:50.894Z,44.73
2018-10-11T04:46:25.085Z,43.73
2018-10-11T04:46:59.013Z,43.90
2018-10-11T04:47:33.262Z,44.47
2018-10-11T04:48:07.993Z,45.05
2018-10-11T04:48:42.220Z,44.90
2018-10-11T04:49:16.687Z,45.48
2018-10-11T04:49:50.546Z,44.30
2018-10-11T04:50:24.390Z,43.80
2018-10-11T04:50:58.250Z,46.17
2018-10-11T04:51:32.107Z,45.67
2018-10-11T04:52:06.001Z,44.37
2018-10-11T04:52:39.883Z,45.70
2018-10-11T04:53:14.609Z,44.43
2018-10-11T04:53:54.861Z,44.50
2018-10-11T04:54:28.713Z,45.30
2018-10-11T04:55:02.586Z,46.70
2018-10-11T04:55:36.456Z,45.87
2018-10-11T04:56:10.658Z,44.33
2018-10-11T04:56:44.498Z,46.37
2018-10-11T04:57:18.663Z,46.10
2018-10-11T04:57:52.823Z,45.57
2018-10-11T04:58:26.708Z,46.43
2018-10-11T04:59:00.839Z,44.88
2018-10-11T04:59:35.015Z,45.40
2018-10-11T05:00:09.063Z,43.10
2018-10-11T05:00:43.244Z,44.67
2018-10-11T05:01:17.091Z,46.97
2018-10-11T05:01:51.295Z,43.47
2018-10-11T05:02:25.531Z,44.30
2018-10-11T05:02:59.366Z,44.30
2018-10-11T05:03:33.541Z,45.50
2018-10-11T05:04:07.776Z,43.90
2018-10-11T05:04:41.995Z,45.30
2018-10-11T05:05:15.825Z,44.40
2018-10-11T05:05:49.882Z,44.93
2018-10-11T05:06:24.056Z,44.37
2018-10-11T05:06:57.888Z,45.20
2018-10-11T05:07:31.743Z,45.97
2018-10-11T05:08:06.046Z,45.77
2018-10-11T05:08:40.212Z,46.03
2018-10-11T05:09:14.476Z,45.33
2018-10-11T05:09:48.990Z,45.20
2018-10-11T05:10:22.852Z,45.50
2018-10-11T05:10:57.019Z,46.10
2018-10-11T05:11:30.868Z,44.23
2018-10-11T05:12:04.720Z,45.13
2018-10-11T05:12:38.576Z,45.10
2018-10-11T05:13:12.736Z,45.40
2018-10-11T05:13:49.240Z,47.10
2018-10-11T05:14:23.131Z,46.90
2018-10-11T05:14:57.189Z,45.80
2018-10-11T05:15:31.280Z,44.97
2018-10-11T05:16:05.160Z,46.37
2018-10-11T05:16:39.684Z,47.20
2018-10-11T05:17:13.601Z,47.17
2018-10-11T05:17:47.834Z,45.90
2018-10-11T05:18:21.681Z,45.67
2018-10-11T05:18:59.821Z,45.40
2018-10-11T05:19:34.564Z,45.73
2018-10-11T05:20:08.535Z,47.17
2018-10-11T05:20:42.704Z,45.40
2018-10-11T05:21:16.590Z,46.37
2018-10-11T05:21:50.970Z,45.20
2018-10-11T05:22:24.858Z,46.13
2018-10-11T05:22:59.081Z,44.90
2018-10-11T05:23:33.264Z,46.23
2018-10-11T05:24:07.366Z,48.17
2018-10-11T05:24:41.204Z,43.63
2018-10-11T05:25:15.050Z,45.80
2018-10-11T05:25:49.232Z,46.60
2018-10-11T05:26:23.093Z,45.27
2018-10-11T05:26:57.642Z,47.73
2018-10-11T05:27:31.839Z,47.10
2018-10-11T05:28:06.037Z,47.97
2018-10-11T05:28:39.904Z,46.07
2018-10-11T05:29:14.103Z,46.73
2018-10-11T05:29:47.992Z,46.23
2018-10-11T05:30:21.816Z,46.13
2018-10-11T05:30:56.085Z,47.27
2018-10-11T05:31:30.485Z,45.00
2018-10-11T05:32:04.883Z,47.87
2018-10-11T05:32:39.383Z,46.30
2018-10-11T05:33:13.960Z,46.97
2018-10-11T05:33:48.093Z,46.73
2018-10-11T05:34:22.299Z,44.70
2018-10-11T05:34:56.421Z,46.13
2018-10-11T05:35:30.620Z,44.90
2018-10-11T05:36:04.759Z,46.55
2018-10-11T05:36:39.085Z,46.20
2018-10-11T05:37:13.576Z,46.60
2018-10-11T05:37:47.507Z,46.03
2018-10-11T05:38:21.649Z,45.67
2018-10-11T05:38:55.497Z,44.73
2018-10-11T05:39:29.357Z,45.03
2018-10-11T05:40:03.271Z,44.40
2018-10-11T05:40:37.186Z,45.13
2018-10-11T05:41:11.450Z,45.37
2018-10-11T05:41:45.364Z,45.30
2018-10-11T05:42:19.208Z,42.10
2018-10-11T05:42:53.120Z,46.13
2018-10-11T05:43:27.049Z,46.60
2018-10-11T05:44:01.193Z,45.08
2018-10-11T05:44:35.444Z,48.03
2018-10-11T05:45:16.942Z,45.53
2018-10-11T05:46:01.489Z,44.67
2018-10-11T05:46:35.383Z,44.63
2018-10-11T05:47:09.581Z,46.13
2018-10-11T05:47:44.091Z,46.07
2018-10-11T05:48:18.129Z,43.90
2018-10-11T05:48:52.550Z,44.70
2018-10-11T05:49:26.606Z,45.03
2018-10-11T05:50:00.485Z,45.73
2018-10-11T05:50:34.349Z,44.47
2018-10-11T05:51:08.264Z,43.93
2018-10-11T05:51:42.146Z,45.83
2018-10-11T05:52:16.272Z,44.27
2018-10-11T05:52:50.165Z,45.70
2018-10-11T05:53:24.159Z,44.77
2018-10-11T05:53:58.533Z,45.00
2018-10-11T05:54:32.424Z,44.60
2018-10-11T05:55:06.769Z,45.60
2018-10-11T05:55:40.738Z,45.03
2018-10-11T05:56:14.663Z,45.83
2018-10-11T05:56:49.358Z,43.30
2018-10-11T05:57:23.537Z,43.57
2018-10-11T05:57:57.375Z,42.53
2018-10-11T05:58:31.520Z,46.10
2018-10-11T05:59:06.397Z,45.50
2018-10-11T05:59:40.219Z,43.20
2018-10-11T06:00:14.067Z,45.13
2018-10-11T06:00:47.951Z,45.97
2018-10-11T06:01:21.912Z,44.57
2018-10-11T06:01:55.753Z,44.00
2018-10-11T06:02:29.966Z,44.70
2018-10-11T06:03:04.438Z,43.33
2018-10-11T06:03:38.324Z,45.50
2018-10-11T06:04:12.898Z,44.53
2018-10-11T06:04:47.251Z,43.97
2018-10-11T06:05:21.474Z,44.97
2018-10-11T06:05:55.359Z,43.77
2018-10-11T06:06:29.897Z,44.30
2018-10-11T06:07:03.800Z,41.50
2018-10-11T06:07:37.687Z,44.03
2018-10-11T06:08:11.575Z,45.47
2018-10-11T06:08:45.777Z,43.70
2018-10-11T06:09:19.886Z,42.07
2018-10-11T06:09:53.731Z,43.27
2018-10-11T06:10:28.561Z,43.27
2018-10-11T06:11:02.463Z,43.10
2018-10-11T06:11:36.364Z,42.17
2018-10-11T06:12:10.251Z,42.47
2018-10-11T06:12:44.317Z,42.50
2018-10-11T06:13:18.193Z,45.13
2018-10-11T06:13:52.089Z,43.20
2018-10-11T06:14:26.011Z,43.37
2018-10-11T06:14:59.930Z,42.43
2018-10-11T06:15:33.809Z,41.50
2018-10-11T06:16:08.081Z,42.70
2018-10-11T06:16:41.970Z,43.40
2018-10-11T06:17:16.081Z,42.80
2018-10-11T06:17:49.982Z,42.80
2018-10-11T06:18:24.390Z,42.20
2018-10-11T06:18:58.233Z,40.60
2018-10-11T06:19:32.449Z,42.87
2018-10-11T06:20:07.005Z,42.57
2018-10-11T06:20:41.363Z,44.00
2018-10-11T06:21:15.501Z,44.43
2018-10-11T06:21:49.354Z,42.03
2018-10-11T06:22:23.209Z,42.10
2018-10-11T06:22:57.737Z,42.03
2018-10-11T06:23:31.603Z,42.67
2018-10-11T06:24:05.485Z,42.57
2018-10-11T06:24:39.359Z,42.60
2018-10-11T06:25:13.391Z,41.03
2018-10-11T06:25:47.629Z,41.37
2018-10-11T06:26:21.829Z,41.90
2018-10-11T06:26:55.716Z,42.67
2018-10-11T06:27:29.726Z,40.87
2018-10-11T06:28:03.633Z,42.83
2018-10-11T06:28:37.879Z,42.27
2018-10-11T06:29:11.877Z,42.70
2018-10-11T06:29:45.725Z,40.10
2018-10-11T06:30:19.618Z,43.03
2018-10-11T06:30:53.683Z,41.50
2018-10-11T06:31:27.685Z,42.70
2018-10-11T06:32:01.548Z,42.33
2018-10-11T06:32:35.399Z,41.33
2018-10-11T06:33:09.253Z,43.23
2018-10-11T06:33:44.201Z,41.57
2018-10-11T06:34:18.067Z,40.80
2018-10-11T06:34:51.913Z,43.07
2018-10-11T06:35:26.379Z,42.07
2018-10-11T06:36:00.272Z,42.77
2018-10-11T06:36:34.347Z,43.77
2018-10-11T06:37:08.369Z,44.13
2018-10-11T06:37:42.978Z,41.77
2018-10-11T06:38:16.851Z,40.93
2018-10-11T06:38:51.078Z,41.83
2018-10-11T06:39:24.943Z,42.20
2018-10-11T06:39:59.151Z,40.43
2018-10-11T06:40:33.847Z,42.53
2018-10-11T06:41:08.016Z,40.43
2018-10-11T06:41:41.882Z,43.70
2018-10-11T06:42:15.979Z,42.20
2018-10-11T06:42:50.042Z,41.17
2018-10-11T06:43:23.989Z,41.70
2018-10-11T06:43:58.084Z,42.20
2018-10-11T06:44:31.973Z,39.80
2018-10-11T06:45:07.679Z,42.43
2018-10-11T06:45:42.169Z,40.10
2018-10-11T06:46:16.033Z,40.03
2018-10-11T06:46:49.875Z,41.87
2018-10-11T06:47:23.711Z,41.53
2018-10-11T06:47:59.605Z,42.73
2018-10-11T06:48:33.689Z,41.83
2018-10-11T06:49:07.830Z,40.20
2018-10-11T06:49:41.710Z,40.10
2018-10-11T06:50:15.802Z,40.33
2018-10-11T06:50:49.851Z,40.67
2018-10-11T06:51:23.724Z,40.80
2018-10-11T06:51:57.596Z,39.77
2018-10-11T06:52:31.435Z,42.03
2018-10-11T06:53:05.327Z,39.43
2018-10-11T06:53:39.507Z,40.87
2018-10-11T06:54:13.733Z,40.60
2018-10-11T06:54:47.557Z,38.53
2018-10-11T06:55:21.405Z,43.00
2018-10-11T06:55:55.283Z,39.57
2018-10-11T06:56:29.607Z,39.63
2018-10-11T06:57:04.125Z,40.47
2018-10-11T06:57:37.969Z,40.00
2018-10-11T06:58:11.853Z,40.40
2018-10-11T06:58:45.709Z,40.20
2018-10-11T06:59:19.553Z,38.50
2018-10-11T06:59:53.390Z,38.30
2018-10-11T07:00:27.275Z,40.57
2018-10-11T07:01:01.134Z,39.80
2018-10-11T07:01:34.978Z,39.63
2018-10-11T07:02:09.177Z,40.80
2018-10-11T07:02:43.033Z,38.23
2018-10-11T07:03:17.448Z,39.57
2018-10-11T07:03:51.264Z,40.37
2018-10-11T07:04:25.176Z,38.30
2018-10-11T07:04:59.024Z,40.03
2018-10-11T07:05:32.883Z,39.90
2018-10-11T07:06:07.099Z,38.77
2018-10-11T07:06:41.299Z,38.10
2018-10-11T07:07:15.201Z,38.90
2018-10-11T07:07:49.603Z,38.17
2018-10-11T07:08:23.632Z,39.17
2018-10-11T07:08:57.511Z,40.43
2018-10-11T07:09:31.389Z,39.33
2018-10-11T07:10:05.602Z,39.27
2018-10-11T07:10:39.812Z,39.80
2018-10-11T07:11:13.706Z,37.00
2018-10-11T07:11:47.544Z,38.30
2018-10-11T07:12:21.469Z,38.13
2018-10-11T07:12:55.664Z,36.47
2018-10-11T07:13:29.653Z,38.10
2018-10-11T07:14:03.671Z,40.90
2018-10-11T07:14:37.918Z,38.87
2018-10-11T07:15:11.790Z,38.90
2018-10-11T07:15:45.653Z,38.03
2018-10-11T07:16:19.637Z,39.10
2018-10-11T07:16:53.841Z,37.63
2018-10-11T07:17:28.078Z,38.20
2018-10-11T07:18:01.949Z,39.03
2018-10-11T07:18:35.903Z,39.17
2018-10-11T07:19:09.760Z,39.77
2018-10-11T07:19:43.789Z,38.30
2018-10-11T07:20:17.624Z,39.53
2018-10-11T07:20:51.791Z,39.00